6CM weather

Chapman Memorial Field
Centerburg, Ohio, United States

Public forecast

Using degrees Fahrenheit for public forecast. Weather courtesy of forecast.io.

METAR (pilot weather report)

Closest report is Knox County Airport, 9.7 nm (18.0 km) ENE. Retrieved 2019/05/22 18:35 UTC (0 seconds ago):

K4I3 221835Z AUTO 22008G15KT 10SM CLR 26/17 A3006 RMK AO2

TAF (pilot weather forecast)

Closest forecast is John Glenn Columbus International Airport, 19.3 nm (35.7 km) SSW. Retrieved 2019/05/22 18:33 UTC (0 seconds ago):

TAF KCMH 221730Z 2218/2318 19012G20KT P6SM SCT050 BKN200 FM222300 22009KT P6SM VCTS BKN045CB FM230300 18006KT P6SM VCSH BKN045 FM230800 19007KT P6SM SCT045 FM231100 20008KT P6SM VCSH BKN050 FM231500 23013G24KT P6SM BKN040